Accueil
METAR-TAF:

METAR-TAF

Aéroports :

Berlin, New Hampshire, États-Unis

latitude: 44-34-34N, longitude: 071-10-43W, altitude: 353 m

Observation

Le bulletin a été fait il y a 29 minutes, à 23:52 UTC
Vent 3 kt de est
Température 21°C
Humidité 64%
Pression 1025 hPa
Visibilité: 16.1 km
Ciel couvert à une hauteur de 3900 ft

METAR: KBML 152352Z AUTO 09003KT 10SM OVC039 21/14 A3027 RMK AO2 SLP247 T02060144 10244 20206 53010

Heure: 20:21 (00:21 UTC)


TAF: absent

Observations et prévisions météorologiques de plus de 4000 aéroports (messages METAR et TAF).

Les stations disponibles sont représentées par des disques jaunes et rouges sur la carte.

Passer la souris dessus pour voir le nom de la station.

Cliquer dessus pour voir les observations et prévisions météorologiques.

Pour changer de carte: cliquez sur les boutons verts avec une croix noire pour zoomer, sur le bouton vert avec un tiret pour effectuer un zoom arrière, ou sur les flèches vertes pour les cartes adjacentes.


METAR-TAF: